Time,TemperatureF,DewpointF,PressureIn,WindDirection,WindDirectionDegrees,WindSpeedMPH,WindSpeedGustMPH,Humidity,HourlyPrecipIn,Conditions,Clouds,dailyrainin,SoftwareType,DateUTC
2013-07-25 00:00:00,83.8,79.2,29.97,East,90,7.0,16.0,86,0.00,CLR,,0.00,WeatherDisplay:10.37,2013-07-25 06:00:00,
2013-07-25 00:15:00,83.8,79.2,29.97,ESE,103,8.0,16.0,86,0.00,CLR,,0.00,WeatherDisplay:10.37,2013-07-25 06:15:00,
2013-07-25 00:30:00,83.8,78.8,29.97,East,93,13.0,16.0,85,0.00,CLR,,0.00,WeatherDisplay:10.37,2013-07-25 06:30:00,
2013-07-25 00:45:00,83.6,77.9,29.96,East,89,15.0,19.0,83,0.00,CLR,,0.00,WeatherDisplay:10.37,2013-07-25 06:45:00,
2013-07-25 01:00:00,83.7,78.7,29.95,East,91,13.0,18.0,85,0.00,CLR,,0.00,WeatherDisplay:10.37,2013-07-25 07:00:00,
2013-07-25 01:15:00,83.6,79.0,29.95,East,93,9.0,16.0,86,0.00,CLR,,0.00,WeatherDisplay:10.37,2013-07-25 07:15:00,
2013-07-25 01:30:00,83.5,78.9,29.94,East,88,10.0,15.0,86,0.00,CLR,,0.00,WeatherDisplay:10.37,2013-07-25 07:30:00,
2013-07-25 01:45:00,83.7,79.1,29.94,East,99,12.0,18.0,86,0.00,CLR,,0.00,WeatherDisplay:10.37,2013-07-25 07:45:00,
2013-07-25 02:00:00,83.6,78.6,29.93,ESE,102,12.0,18.0,85,0.00,CLR,,0.00,WeatherDisplay:10.37,2013-07-25 08:00:00,
2013-07-25 02:15:00,83.6,79.0,29.93,East,91,6.0,16.0,86,0.00,CLR,,0.00,WeatherDisplay:10.37,2013-07-25 08:15:00,
2013-07-25 02:30:00,83.5,78.9,29.93,East,101,7.0,16.0,86,0.00,CLR,,0.00,WeatherDisplay:10.37,2013-07-25 08:30:00,
2013-07-25 02:45:00,83.5,79.2,29.93,East,91,12.0,18.0,87,0.00,CLR,,0.00,WeatherDisplay:10.37,2013-07-25 08:45:00,
2013-07-25 03:00:00,83.5,78.9,29.93,ESE,115,9.0,13.0,86,0.00,CLR,,0.00,WeatherDisplay:10.37,2013-07-25 09:00:00,
2013-07-25 03:15:00,83.6,79.0,29.93,ESE,105,8.0,15.0,86,0.00,CLR,,0.00,WeatherDisplay:10.37,2013-07-25 09:15:00,
2013-07-25 03:30:00,83.6,78.6,29.93,ESE,104,12.0,18.0,85,0.00,CLR,,0.00,WeatherDisplay:10.37,2013-07-25 09:30:00,
2013-07-25 03:45:00,83.5,78.9,29.93,ESE,106,12.0,16.0,86,0.00,CLR,,0.00,WeatherDisplay:10.37,2013-07-25 09:45:00,
2013-07-25 04:00:00,83.5,78.2,29.94,ESE,112,14.0,18.0,84,0.00,CLR,,0.00,WeatherDisplay:10.37,2013-07-25 10:00:00,
2013-07-25 04:15:00,83.5,78.9,29.94,East,98,9.0,15.0,86,0.00,CLR,,0.00,WeatherDisplay:10.37,2013-07-25 10:15:00,
2013-07-25 04:30:00,83.4,78.4,29.94,ESE,106,13.0,18.0,85,0.00,CLR,,0.00,WeatherDisplay:10.37,2013-07-25 10:30:00,
2013-07-25 04:45:00,83.5,78.5,29.94,ESE,106,8.0,16.0,85,0.00,CLR,,0.00,WeatherDisplay:10.37,2013-07-25 10:45:00,
2013-07-25 05:00:00,83.7,78.3,29.95,ESE,113,12.0,16.0,84,0.00,CLR,,0.00,WeatherDisplay:10.37,2013-07-25 11:00:00,
2013-07-25 05:15:00,83.5,77.8,29.95,ESE,103,9.0,15.0,83,0.00,CLR,,0.00,WeatherDisplay:10.37,2013-07-25 11:15:00,
2013-07-25 05:30:00,83.5,78.5,29.96,ESE,106,9.0,14.0,85,0.00,CLR,,0.00,WeatherDisplay:10.37,2013-07-25 11:30:00,
2013-07-25 05:45:00,83.5,78.2,29.97,ESE,108,10.0,15.0,84,0.00,CLR,,0.00,WeatherDisplay:10.37,2013-07-25 11:45:00,
2013-07-25 06:00:00,83.6,77.9,29.97,ESE,107,8.0,16.0,83,0.00,CLR,,0.00,WeatherDisplay:10.37,2013-07-25 12:00:00,
2013-07-25 06:15:00,83.8,77.7,29.98,East,100,9.0,13.0,82,0.00,CLR,,0.00,WeatherDisplay:10.37,2013-07-25 12:15:00,
2013-07-25 06:30:00,84.1,78.4,29.98,ESE,105,10.0,13.0,83,0.00,CLR,,0.00,WeatherDisplay:10.37,2013-07-25 12:30:00,
2013-07-25 06:45:00,84.5,78.4,29.99,East,96,8.0,14.0,82,0.00,CLR,,0.00,WeatherDisplay:10.37,2013-07-25 12:45:00,
2013-07-25 07:00:00,84.7,78.2,29.99,East,95,7.0,16.0,81,0.00,CLR,,0.00,WeatherDisplay:10.37,2013-07-25 13:00:00,
2013-07-25 07:15:00,85.2,78.4,29.99,ESE,106,5.0,12.0,80,0.00,CLR,,0.00,WeatherDisplay:10.37,2013-07-25 13:15:00,
2013-07-25 07:30:00,85.3,78.5,29.98,East,96,7.0,13.0,80,0.00,CLR,,0.00,WeatherDisplay:10.37,2013-07-25 13:30:00,
2013-07-25 07:45:00,85.7,78.8,29.99,East,95,7.0,13.0,80,0.00,CLR,,0.00,WeatherDisplay:10.37,2013-07-25 13:45:00,
2013-07-25 08:00:00,85.3,78.4,29.99,East,88,10.0,15.0,80,0.00,CLR,,0.00,WeatherDisplay:10.37,2013-07-25 14:00:00,
2013-07-25 08:15:00,86.0,79.4,30.00,East,89,5.0,14.0,81,0.00,CLR,,0.00,WeatherDisplay:10.37,2013-07-25 14:15:00,
2013-07-25 08:30:00,86.5,79.6,30.00,East,93,6.0,12.0,80,0.00,CLR,,0.00,WeatherDisplay:10.37,2013-07-25 14:30:00,
2013-07-25 08:45:00,86.6,79.3,30.01,East,97,5.0,12.0,79,0.00,CLR,,0.00,WeatherDisplay:10.37,2013-07-25 14:45:00,
2013-07-25 09:00:00,86.6,79.3,30.01,East,93,5.0,13.0,79,0.00,CLR,,0.00,WeatherDisplay:10.37,2013-07-25 15:00:00,
2013-07-25 09:15:00,87.1,79.8,30.01,ESE,105,5.0,14.0,79,0.00,CLR,,0.00,WeatherDisplay:10.37,2013-07-25 15:15:00,
2013-07-25 09:30:00,86.4,79.8,30.01,ENE,73,8.0,14.0,81,0.00,CLR,,0.00,WeatherDisplay:10.37,2013-07-25 15:30:00,
2013-07-25 09:45:00,86.4,79.5,30.02,East,97,12.0,16.0,80,0.00,CLR,,0.00,WeatherDisplay:10.37,2013-07-25 15:45:00,
2013-07-25 10:00:00,86.6,80.1,30.02,East,93,9.0,15.0,81,0.00,CLR,,0.00,WeatherDisplay:10.37,2013-07-25 16:00:00,
2013-07-25 10:15:00,86.3,79.8,30.02,East,96,12.0,15.0,81,0.00,CLR,,0.00,WeatherDisplay:10.37,2013-07-25 16:15:00,
2013-07-25 10:30:00,87.2,79.5,30.02,East,91,7.0,16.0,78,0.00,CLR,,0.00,WeatherDisplay:10.37,2013-07-25 16:30:00,
2013-07-25 10:45:00,86.8,79.9,30.02,East,88,10.0,14.0,80,0.00,CLR,,0.00,WeatherDisplay:10.37,2013-07-25 16:45:00,
2013-07-25 11:00:00,86.6,79.7,30.02,East,89,12.0,15.0,80,0.00,CLR,,0.00,WeatherDisplay:10.37,2013-07-25 17:00:00,
2013-07-25 11:15:00,87.0,79.7,30.02,East,96,9.0,15.0,79,0.00,CLR,,0.00,WeatherDisplay:10.37,2013-07-25 17:15:00,
2013-07-25 11:30:00,87.1,80.2,30.02,East,95,9.0,14.0,80,0.00,CLR,,0.00,WeatherDisplay:10.37,2013-07-25 17:30:00,
2013-07-25 11:45:00,87.3,80.0,30.02,East,87,12.0,14.0,79,0.00,CLR,,0.00,WeatherDisplay:10.37,2013-07-25 17:45:00,
2013-07-25 12:00:00,87.3,80.0,30.02,East,84,9.0,14.0,79,0.00,CLR,,0.00,WeatherDisplay:10.37,2013-07-25 18:00:00,
2013-07-25 12:15:00,87.5,80.2,30.02,ENE,70,9.0,14.0,79,0.00,CLR,,0.00,WeatherDisplay:10.37,2013-07-25 18:15:00,
2013-07-25 12:30:00,87.7,80.0,30.02,ENE,78,8.0,14.0,78,0.00,CLR,,0.00,WeatherDisplay:10.37,2013-07-25 18:30:00,
2013-07-25 12:45:00,87.4,80.0,30.02,East,83,12.0,15.0,79,0.00,CLR,,0.00,WeatherDisplay:10.37,2013-07-25 18:45:00,
2013-07-25 13:00:00,87.2,79.9,30.02,East,84,10.0,15.0,79,0.00,CLR,,0.00,WeatherDisplay:10.37,2013-07-25 19:00:00,
2013-07-25 13:15:00,87.9,80.5,30.01,East,85,6.0,14.0,79,0.00,CLR,,0.00,WeatherDisplay:10.37,2013-07-25 19:15:00,
2013-07-25 13:30:00,87.5,79.8,30.01,East,92,9.0,13.0,78,0.00,CLR,,0.00,WeatherDisplay:10.37,2013-07-25 19:30:00,
2013-07-25 13:45:00,87.2,79.9,30.01,East,88,12.0,14.0,79,0.00,CLR,,0.00,WeatherDisplay:10.37,2013-07-25 19:45:00,
2013-07-25 14:00:00,87.0,79.7,30.01,East,87,12.0,14.0,79,0.00,CLR,,0.00,WeatherDisplay:10.37,2013-07-25 20:00:00,
2013-07-25 14:15:00,87.3,80.0,30.01,East,95,8.0,13.0,79,0.00,CLR,,0.00,WeatherDisplay:10.37,2013-07-25 20:15:00,
2013-07-25 14:30:00,87.2,79.5,30.00,ENE,76,12.0,15.0,78,0.00,CLR,,0.00,WeatherDisplay:10.37,2013-07-25 20:30:00,
2013-07-25 14:45:00,87.6,80.6,30.00,ENE,76,7.0,13.0,80,0.00,CLR,,0.00,WeatherDisplay:10.37,2013-07-25 20:45:00,
2013-07-25 15:00:00,87.9,80.5,30.00,ENE,78,7.0,15.0,79,0.00,CLR,,0.00,WeatherDisplay:10.37,2013-07-25 21:00:00,
2013-07-25 15:15:00,87.7,80.4,30.00,ENE,67,8.0,14.0,79,0.00,CLR,,0.00,WeatherDisplay:10.37,2013-07-25 21:15:00,
2013-07-25 15:30:00,87.7,80.4,30.00,ENE,71,7.0,15.0,79,0.00,CLR,,0.00,WeatherDisplay:10.37,2013-07-25 21:30:00,
2013-07-25 15:45:00,87.3,80.0,30.01,East,89,9.0,14.0,79,0.00,CLR,,0.00,WeatherDisplay:10.37,2013-07-25 21:45:00,
2013-07-25 16:00:00,86.6,79.7,30.00,East,80,8.0,13.0,80,0.00,CLR,,0.00,WeatherDisplay:10.37,2013-07-25 22:00:00,
2013-07-25 16:15:00,86.6,80.1,30.01,ENE,70,7.0,14.0,81,0.00,CLR,,0.00,WeatherDisplay:10.37,2013-07-25 22:15:00,
2013-07-25 16:26:00,86.5,80.3,30.01,ENE,67,8.0,13.0,82,0.00,CLR,,0.00,WeatherDisplay:10.37,2013-07-25 22:26:00,
2013-07-25 16:45:00,86.3,79.4,30.02,ENE,78,7.0,14.0,80,0.00,CLR,,0.00,WeatherDisplay:10.37,2013-07-25 22:45:00,
2013-07-25 17:00:00,86.2,79.3,30.02,ENE,75,10.0,14.0,80,0.00,CLR,,0.00,WeatherDisplay:10.37,2013-07-25 23:00:00,
2013-07-25 17:15:00,85.9,79.4,30.02,East,81,8.0,14.0,81,0.00,CLR,,0.00,WeatherDisplay:10.37,2013-07-25 23:15:00,
2013-07-25 17:30:00,85.6,79.5,30.02,ENE,64,9.0,13.0,82,0.00,CLR,,0.00,WeatherDisplay:10.37,2013-07-25 23:30:00,
2013-07-25 17:45:00,85.1,79.0,30.02,East,84,8.0,14.0,82,0.00,CLR,,0.00,WeatherDisplay:10.37,2013-07-25 23:45:00,
2013-07-25 18:00:00,84.9,78.8,30.02,ENE,62,7.0,14.0,82,0.00,CLR,,0.00,WeatherDisplay:10.37,2013-07-26 00:00:00,
2013-07-25 18:15:00,84.7,79.0,30.03,ENE,68,6.0,14.0,83,0.00,CLR,,0.00,WeatherDisplay:10.37,2013-07-26 00:15:00,
2013-07-25 18:30:00,84.5,78.8,30.03,ENE,71,7.0,12.0,83,0.00,CLR,,0.00,WeatherDisplay:10.37,2013-07-26 00:30:00,
2013-07-25 18:45:00,84.4,78.7,30.03,East,80,7.0,14.0,83,0.00,CLR,,0.00,WeatherDisplay:10.37,2013-07-26 00:45:00,
2013-07-25 19:00:00,84.3,78.9,30.03,ENE,66,3.0,14.0,84,0.00,CLR,,0.00,WeatherDisplay:10.37,2013-07-26 01:00:00,
2013-07-25 19:15:00,84.3,78.9,30.03,ENE,72,7.0,16.0,84,0.00,CLR,,0.00,WeatherDisplay:10.37,2013-07-26 01:15:00,
2013-07-25 19:30:00,84.2,79.2,30.04,East,80,6.0,13.0,85,0.00,CLR,,0.00,WeatherDisplay:10.37,2013-07-26 01:30:00,
2013-07-25 19:45:00,84.1,79.1,30.04,ENE,76,6.0,13.0,85,0.00,CLR,,0.00,WeatherDisplay:10.37,2013-07-26 01:45:00,
2013-07-25 20:00:00,84.2,79.6,30.04,East,88,9.0,15.0,86,0.00,CLR,,0.00,WeatherDisplay:10.37,2013-07-26 02:00:00,
2013-07-25 20:15:00,84.2,79.2,30.05,East,84,9.0,16.0,85,0.00,CLR,,0.00,WeatherDisplay:10.37,2013-07-26 02:15:00,
2013-07-25 20:30:00,84.2,78.8,30.05,ENE,70,9.0,16.0,84,0.00,CLR,,0.00,WeatherDisplay:10.37,2013-07-26 02:30:00,
2013-07-25 20:45:00,84.2,78.8,30.05,ENE,68,7.0,19.0,84,0.00,CLR,,0.00,WeatherDisplay:10.37,2013-07-26 02:45:00,
2013-07-25 21:00:00,84.3,79.6,30.05,ENE,63,9.0,16.0,86,0.00,CLR,,0.00,WeatherDisplay:10.37,2013-07-26 03:00:00,
2013-07-25 21:15:00,84.2,79.2,30.06,ENE,75,13.0,16.0,85,0.00,CLR,,0.00,WeatherDisplay:10.37,2013-07-26 03:15:00,
2013-07-25 21:30:00,84.3,79.3,30.06,East,81,10.0,19.0,85,0.00,CLR,,0.00,WeatherDisplay:10.37,2013-07-26 03:30:00,
2013-07-25 21:45:00,84.2,79.6,30.06,East,94,15.0,19.0,86,0.00,CLR,,0.00,WeatherDisplay:10.37,2013-07-26 03:45:00,
2013-07-25 22:00:00,84.2,78.8,30.07,East,89,13.0,18.0,84,0.00,CLR,,0.00,WeatherDisplay:10.37,2013-07-26 04:00:00,
2013-07-25 22:15:00,84.2,78.8,30.07,East,81,15.0,19.0,84,0.00,CLR,,0.00,WeatherDisplay:10.37,2013-07-26 04:15:00,
2013-07-25 22:30:00,84.3,78.6,30.07,East,87,14.0,18.0,83,0.00,CLR,,0.00,WeatherDisplay:10.37,2013-07-26 04:30:00,
2013-07-25 22:45:00,84.2,79.2,30.07,East,87,14.0,18.0,85,0.00,CLR,,0.00,WeatherDisplay:10.37,2013-07-26 04:45:00,
2013-07-25 23:00:00,84.1,79.5,30.07,East,91,12.0,18.0,86,0.00,CLR,,0.00,WeatherDisplay:10.37,2013-07-26 05:00:00,
2013-07-25 23:15:00,84.1,79.1,30.07,East,91,13.0,19.0,85,0.00,CLR,,0.00,WeatherDisplay:10.37,2013-07-26 05:15:00,
2013-07-25 23:30:00,84.1,79.4,30.07,East,97,14.0,19.0,86,0.00,CLR,,0.00,WeatherDisplay:10.37,2013-07-26 05:30:00,
2013-07-25 23:45:00,84.0,79.0,30.06,East,82,15.0,20.0,85,0.00,CLR,,0.00,WeatherDisplay:10.37,2013-07-26 05:45:00,